Terminal Aerodrome Forecast
Issued by NWS Mt. Holly, NJ

Home | Current Version | Previous Version | Text Only | Print | Product List | Glossary On
Versions: 1 2 3 4 5 6 7 8 9 10 11 12 13 14 15 16 17 18 19 20 21 22 23 24 25 26 27 28 29 30 31 32 33 34 35 36 37 38 39 40 41
000
FTAK31 PANC 251920 AAA
TAFABE
TAF AMD
PABE 251920Z 2519/2618 18015KT P6SM VCSH OVC025
      TEMPO 2519/2521 5SM BR BKN015
     FM252100 20011G20KT P6SM OVC020
     FM260300 20011KT P6SM SCT020 OVC050
     FM260900 19005KT P6SM VCFG SCT100=

USA.gov is the U.S. government's official web portal to all federal, state and local government web resources and services.